Observations
| Time | Sensor | AQI | SAQ | Temp °C | Hum % | Pres Pa | CO μg/m³ | H₂S μg/m³ | NO μg/m³ | NO₂ μg/m³ | O₃ μg/m³ | SO₂ μg/m³ | CO₂e PPM | VOC PPM | PM1 μg/m³ | PM2.5 μg/m³ | PM4 μg/m³ | PM10 μg/m³ | TPS µm |
|---|---|---|---|---|---|---|---|---|---|---|---|---|---|---|---|---|---|---|---|
| Wednesday 12 August 2026 | |||||||||||||||||||
| 01:33 | Trim Market St | 2 | 20.2 | 60 | 57,835 | 0 | 0 | 1.22 | 18.04 | 58.89 | 0 | 0.71 | 3.02 | 4.79 | |||||
| 01:33 | Trim Patrick St | 2 | 19.5 | 64 | 75,572 | 0 | 5.15 | 1.23 | 17.45 | 39.3 | 1.58 | 4.57 | 8.44 | 9.29 | |||||
| 01:32 | Trim Market St | 2 | 20.2 | 60 | 57,840 | 0 | 0 | 1.22 | 28.61 | 58.39 | 0 | 1.43 | 4.02 | 5.47 | |||||
| 01:32 | Trim Patrick St | 2 | 19.5 | 65 | 75,522 | 0 | 9.8 | 1.23 | 28.38 | 47.26 | 2.68 | 3.71 | 8.4 | 9.24 | |||||
| 01:31 | Trim Patrick St | 2 | 19.5 | 64 | 75,446 | 0 | 9.3 | 1.23 | 29.66 | 50.18 | 2.28 | 4.57 | 8.47 | 9.31 | |||||
| 01:30 | Trim Market St | 2 | 20.3 | 60 | 57,849 | 0 | 0 | 1.22 | 17.71 | 61.85 | 0 | 1.43 | 4.03 | 7.53 | |||||
| 01:30 | Trim Patrick St | 2 | 19.5 | 63 | 75,371 | 0 | 8.33 | 1.23 | 36.93 | 40.89 | 1.87 | 3.71 | 7.81 | 8.59 | |||||
| 01:29 | Trim Market St | 2 | 20.3 | 60 | 57,852 | 0.01 | 0 | 1.21 | 28.47 | 55.01 | 0 | 1.43 | 3.53 | 4.78 | |||||
| 01:29 | Trim Patrick St | 2 | 19.5 | 64 | 75,314 | 0 | 7.72 | 1.25 | 33.3 | 47.83 | 2.04 | 4.57 | 9.2 | 10.12 | |||||
| 01:28 | Trim Patrick St | 2 | 19.6 | 64 | 75,263 | 0 | 6.75 | 1.25 | 16.35 | 47.06 | 2.66 | 4.57 | 9.92 | 10.91 | |||||
| 01:27 | Trim Market St | 2 | 20.3 | 60 | 57,856 | 0 | 0 | 1.21 | 16.31 | 63.87 | 0 | 2.14 | 4.05 | 5.46 | |||||
| 01:27 | Trim Patrick St | 2 | 19.6 | 64 | 75,218 | 0 | 8.77 | 1.26 | 19.54 | 42.67 | 2.71 | 3.71 | 7.7 | 8.47 | |||||
| 01:26 | Trim Market St | 2 | 20.3 | 60 | 57,858 | 0 | 0 | 1.21 | 17.68 | 62.52 | 0 | 2.14 | 4.05 | 5.46 | |||||
| 01:26 | Trim Patrick St | 2 | 19.6 | 64 | 75,161 | 0 | 10.72 | 1.23 | 36.25 | 51.11 | 2.49 | 4.57 | 9.17 | 10.09 | |||||
| 01:25 | Trim Patrick St | 2 | 19.6 | 64 | 75,082 | 0 | 8.88 | 1.24 | 21.11 | 38.28 | 2.41 | 4.57 | 9.22 | 10.14 | |||||
| 01:24 | Trim Market St | 2 | 20.3 | 59 | 57,864 | 0 | 0 | 1.21 | 17.12 | 61.45 | 0 | 1.43 | 3.56 | 4.77 | |||||
| 01:24 | Trim Patrick St | 2 | 19.6 | 62 | 75,025 | 0 | 11.37 | 1.23 | 34.85 | 46.4 | 2.68 | 4.57 | 10.08 | 11.09 | |||||
| 01:23 | Trim Patrick St | 2 | 19.7 | 64 | 74,960 | 0 | 11.43 | 1.23 | 38.51 | 47.23 | 2.68 | 4.57 | 9.96 | 10.95 | |||||
| 01:22 | Trim Market St | 2 | 20.3 | 59 | 57,869 | 0 | 0 | 1.21 | 16.85 | 60.87 | 0 | 2.14 | 3.56 | 6.15 | |||||
| 01:22 | Trim Patrick St | 2 | 19.6 | 63 | 74,901 | 0 | 10.43 | 1.23 | 41.92 | 43.28 | 2.99 | 4.57 | 9.26 | 10.18 | |||||